createdAt,value
2022-11-26T00:02:22.880Z,74.66
2022-11-26T00:04:50.279Z,74.73
2022-11-26T00:07:22.653Z,74.71
2022-11-26T00:09:50.546Z,74.58
2022-11-26T00:12:20.919Z,74.75
2022-11-26T00:14:48.293Z,74.80
2022-11-26T00:17:17.355Z,74.86
2022-11-26T00:19:45.330Z,74.77
2022-11-26T00:22:28.503Z,74.73
2022-11-26T00:24:58.786Z,74.88
2022-11-26T00:27:29.765Z,74.78
2022-11-26T00:29:56.602Z,74.91
2022-11-26T00:32:25.913Z,75.00
2022-11-26T00:34:53.627Z,74.83
2022-11-26T00:37:29.255Z,74.84
2022-11-26T00:39:58.614Z,74.94
2022-11-26T00:42:25.730Z,75.11
2022-11-26T00:44:52.629Z,74.87
2022-11-26T00:47:19.573Z,74.78
2022-11-26T00:49:46.766Z,74.90
2022-11-26T00:52:35.091Z,74.92
2022-11-26T00:55:08.391Z,74.72
2022-11-26T00:57:35.822Z,74.92
2022-11-26T01:00:03.224Z,74.96
2022-11-26T01:02:30.114Z,74.73
2022-11-26T01:04:57.068Z,74.73
2022-11-26T01:07:23.994Z,74.47
2022-11-26T01:09:52.026Z,74.51
2022-11-26T01:12:18.836Z,74.62
2022-11-26T01:14:46.012Z,74.86
2022-11-26T01:17:13.681Z,74.66
2022-11-26T01:19:40.672Z,74.79
2022-11-26T01:22:23.164Z,74.58
2022-11-26T01:24:50.272Z,74.73
2022-11-26T01:27:20.188Z,74.45
2022-11-26T01:29:47.623Z,74.66
2022-11-26T01:32:14.670Z,74.54
2022-11-26T01:34:41.486Z,74.51
2022-11-26T01:37:12.990Z,74.38
2022-11-26T01:39:40.168Z,74.66
2022-11-26T01:42:22.322Z,74.58
2022-11-26T01:44:49.293Z,74.53
2022-11-26T01:47:24.170Z,74.63
2022-11-26T01:50:28.679Z,74.62
2022-11-26T01:53:02.932Z,74.62
2022-11-26T01:55:36.863Z,74.48
2022-11-26T01:58:07.777Z,74.67
2022-11-26T02:00:34.661Z,74.41
2022-11-26T02:03:04.559Z,74.50
2022-11-26T02:05:37.847Z,74.82
2022-11-26T02:08:06.947Z,74.85
2022-11-26T02:10:34.954Z,74.80
2022-11-26T02:13:02.003Z,74.89
2022-11-26T02:15:38.107Z,74.88
2022-11-26T02:18:09.333Z,74.67
2022-11-26T02:20:55.909Z,74.59
2022-11-26T02:23:25.661Z,74.89
2022-11-26T02:26:08.290Z,74.73
2022-11-26T02:28:56.847Z,74.65
2022-11-26T02:31:35.633Z,74.93
2022-11-26T02:34:18.265Z,74.74
2022-11-26T02:36:52.496Z,74.95
2022-11-26T02:39:25.480Z,74.97
2022-11-26T02:41:56.365Z,74.91
2022-11-26T02:44:26.845Z,74.72
2022-11-26T02:47:05.039Z,75.11
2022-11-26T02:49:34.781Z,75.01
2022-11-26T02:52:04.078Z,74.98
2022-11-26T02:54:33.624Z,74.94
2022-11-26T02:57:04.352Z,74.90
2022-11-26T02:59:31.914Z,75.00
2022-11-26T03:02:34.182Z,75.03
2022-11-26T03:05:04.757Z,74.99
2022-11-26T03:07:34.210Z,75.02
2022-11-26T03:10:02.956Z,75.11
2022-11-26T03:12:30.529Z,74.86
2022-11-26T03:14:57.497Z,74.96
2022-11-26T03:17:24.911Z,75.01
2022-11-26T03:19:52.048Z,75.06
2022-11-26T03:22:18.946Z,75.29
2022-11-26T03:24:45.847Z,75.26
2022-11-26T03:27:13.066Z,75.21
2022-11-26T03:29:39.961Z,75.14
2022-11-26T03:32:07.373Z,75.31
2022-11-26T03:34:34.390Z,75.31
2022-11-26T03:37:01.202Z,75.26
2022-11-26T03:39:28.191Z,75.46
2022-11-26T03:41:55.448Z,75.50
2022-11-26T03:44:23.922Z,75.40
2022-11-26T03:46:50.787Z,75.30
2022-11-26T03:49:17.667Z,75.17
2022-11-26T03:51:44.615Z,75.35
2022-11-26T03:54:11.523Z,75.30
2022-11-26T03:56:38.450Z,75.29
2022-11-26T03:59:05.471Z,75.36
2022-11-26T04:01:32.832Z,75.41
2022-11-26T04:03:59.753Z,75.29
2022-11-26T04:06:27.097Z,75.33
2022-11-26T04:08:56.387Z,75.30
2022-11-26T04:11:23.225Z,75.33
2022-11-26T04:13:50.189Z,75.27
2022-11-26T04:16:18.386Z,75.20
2022-11-26T04:18:46.712Z,75.25
2022-11-26T04:21:15.271Z,75.38
2022-11-26T04:23:42.297Z,75.27
2022-11-26T04:26:10.302Z,75.29
2022-11-26T04:28:37.369Z,75.25
2022-11-26T04:31:04.294Z,75.24
2022-11-26T04:33:31.237Z,75.16
2022-11-26T04:35:58.733Z,75.42
2022-11-26T04:38:27.791Z,75.22
2022-11-26T04:40:54.631Z,75.21
2022-11-26T04:43:22.083Z,75.46
2022-11-26T04:45:49.075Z,75.22
2022-11-26T04:48:16.484Z,75.39
2022-11-26T04:50:43.416Z,75.17
2022-11-26T04:53:10.799Z,75.34
2022-11-26T04:55:38.026Z,75.26
2022-11-26T04:58:04.880Z,75.29
2022-11-26T05:00:31.778Z,75.24
2022-11-26T05:02:58.794Z,75.15
2022-11-26T05:05:26.902Z,75.24
2022-11-26T05:07:53.861Z,75.28
2022-11-26T05:10:20.842Z,75.37
2022-11-26T05:12:47.778Z,75.17
2022-11-26T05:15:16.055Z,75.30
2022-11-26T05:17:43.000Z,75.38
2022-11-26T05:20:11.850Z,75.39
2022-11-26T05:22:38.707Z,75.36
2022-11-26T05:25:06.349Z,75.33
2022-11-26T05:27:33.341Z,75.11
2022-11-26T05:30:00.397Z,74.99
2022-11-26T05:32:27.343Z,75.08
2022-11-26T05:35:00.004Z,74.97
2022-11-26T05:37:29.905Z,75.16
2022-11-26T05:39:57.866Z,75.07
2022-11-26T05:42:24.797Z,74.92
2022-11-26T05:44:51.741Z,75.13
2022-11-26T05:47:18.628Z,75.06
2022-11-26T05:49:45.841Z,75.22
2022-11-26T05:52:12.655Z,74.89
2022-11-26T05:54:39.945Z,74.84
2022-11-26T05:57:07.028Z,74.87
2022-11-26T05:59:34.424Z,74.84
2022-11-26T06:02:03.721Z,74.89
2022-11-26T06:04:32.060Z,75.21
2022-11-26T06:07:00.576Z,75.14
2022-11-26T06:09:27.527Z,75.38
2022-11-26T06:11:54.583Z,75.26
2022-11-26T06:14:21.569Z,75.35
2022-11-26T06:16:49.364Z,75.35
2022-11-26T06:19:16.280Z,75.14
2022-11-26T06:21:43.447Z,75.21
2022-11-26T06:24:10.497Z,75.05
2022-11-26T06:26:38.732Z,74.86
2022-11-26T06:29:06.649Z,75.03
2022-11-26T06:31:33.802Z,74.91
2022-11-26T06:34:00.736Z,75.11
2022-11-26T06:36:27.736Z,75.14
2022-11-26T06:38:54.605Z,75.29
2022-11-26T06:41:21.675Z,75.30
2022-11-26T06:43:48.492Z,75.08
2022-11-26T06:46:15.402Z,75.09
2022-11-26T06:48:42.448Z,75.00
2022-11-26T06:51:12.402Z,75.10
2022-11-26T06:53:39.478Z,75.15
2022-11-26T06:56:14.976Z,75.05
2022-11-26T06:58:46.691Z,75.01
2022-11-26T07:01:19.933Z,75.07
2022-11-26T07:03:47.476Z,75.17
2022-11-26T07:06:26.429Z,75.15
2022-11-26T07:08:55.468Z,75.04
2022-11-26T07:11:23.516Z,74.72
2022-11-26T07:13:50.336Z,74.58
2022-11-26T07:16:17.241Z,74.88
2022-11-26T07:18:48.746Z,74.92
2022-11-26T07:21:15.544Z,74.80
2022-11-26T07:23:42.697Z,74.78
2022-11-26T07:26:11.353Z,74.96
2022-11-26T07:28:38.623Z,75.01
2022-11-26T07:31:15.906Z,74.82
2022-11-26T07:33:44.480Z,74.85
2022-11-26T07:36:17.300Z,74.69
2022-11-26T07:38:44.859Z,74.89
2022-11-26T07:41:14.130Z,74.80
2022-11-26T07:43:42.510Z,74.72
2022-11-26T07:46:13.154Z,74.84
2022-11-26T07:48:40.525Z,74.86
2022-11-26T07:51:15.435Z,74.77
2022-11-26T07:53:42.265Z,74.85
2022-11-26T07:56:09.037Z,74.75
2022-11-26T07:58:36.364Z,74.69
2022-11-26T08:01:23.893Z,74.80
2022-11-26T08:03:51.698Z,74.60
2022-11-26T08:06:23.498Z,74.81
2022-11-26T08:08:50.936Z,74.84
2022-11-26T08:11:18.967Z,74.93
2022-11-26T08:13:46.279Z,74.93
2022-11-26T08:16:16.252Z,74.72
2022-11-26T08:18:43.680Z,75.01
2022-11-26T08:21:10.802Z,74.89
2022-11-26T08:24:13.991Z,74.93
2022-11-26T08:26:44.133Z,74.92
2022-11-26T08:29:22.445Z,74.86
2022-11-26T08:31:51.328Z,74.82
2022-11-26T08:34:22.905Z,74.88
2022-11-26T08:36:49.738Z,74.71
2022-11-26T08:39:18.237Z,74.67
2022-11-26T08:41:50.605Z,74.45
2022-11-26T08:44:19.415Z,74.70
2022-11-26T08:46:46.204Z,74.88
2022-11-26T08:49:15.187Z,74.72
2022-11-26T08:51:42.302Z,74.48
2022-11-26T08:54:09.624Z,74.64
2022-11-26T08:56:36.907Z,74.42
2022-11-26T08:59:04.280Z,74.51
2022-11-26T09:01:33.141Z,74.38
2022-11-26T09:04:02.242Z,74.55
2022-11-26T09:06:31.233Z,74.45
2022-11-26T09:09:14.613Z,74.42
2022-11-26T09:11:49.317Z,74.44
2022-11-26T09:14:21.713Z,74.25
2022-11-26T09:16:48.580Z,74.51
2022-11-26T09:19:16.153Z,74.53
2022-11-26T09:21:43.411Z,74.47
2022-11-26T09:24:11.172Z,74.77
2022-11-26T09:26:39.033Z,74.81
2022-11-26T09:29:06.501Z,74.59
2022-11-26T09:31:33.506Z,74.54
2022-11-26T09:34:02.520Z,74.50
2022-11-26T09:36:29.909Z,74.75
2022-11-26T09:38:58.432Z,74.72
2022-11-26T09:41:30.962Z,74.68
2022-11-26T09:44:25.750Z,74.73
2022-11-26T09:47:11.529Z,74.75
2022-11-26T09:49:48.192Z,74.83
2022-11-26T09:52:18.656Z,74.97
2022-11-26T09:54:47.118Z,74.83
2022-11-26T09:57:48.061Z,75.11
2022-11-26T10:00:27.997Z,75.08
2022-11-26T10:02:56.688Z,74.97
2022-11-26T10:05:37.463Z,75.18
2022-11-26T10:08:33.192Z,75.03
2022-11-26T10:11:41.950Z,75.12
2022-11-26T10:14:47.819Z,75.20
2022-11-26T10:17:14.602Z,74.80
2022-11-26T10:20:03.659Z,75.13
2022-11-26T10:22:34.828Z,75.19
2022-11-26T10:25:04.430Z,75.23
2022-11-26T10:27:34.454Z,74.77
2022-11-26T10:30:09.547Z,75.18
2022-11-26T10:32:41.648Z,75.25
2022-11-26T10:35:15.582Z,75.23
2022-11-26T10:37:42.647Z,75.09
2022-11-26T10:40:18.355Z,74.90
2022-11-26T10:43:05.422Z,74.84
2022-11-26T10:45:58.060Z,74.91
2022-11-26T10:48:35.468Z,74.78
2022-11-26T10:51:16.778Z,74.80
2022-11-26T10:53:54.169Z,74.81
2022-11-26T10:56:25.970Z,75.15
2022-11-26T10:58:54.287Z,75.37
2022-11-26T11:01:21.265Z,75.52
2022-11-26T11:04:10.264Z,75.62
2022-11-26T11:06:43.414Z,75.98
2022-11-26T11:09:33.467Z,77.46
2022-11-26T11:12:26.624Z,78.74
2022-11-26T11:14:53.558Z,78.78
2022-11-26T11:17:32.850Z,78.27
2022-11-26T11:20:06.109Z,77.71
2022-11-26T11:22:33.047Z,76.24
2022-11-26T11:25:00.374Z,74.74
2022-11-26T11:27:41.332Z,74.43
2022-11-26T11:30:24.896Z,73.71
2022-11-26T11:32:57.286Z,73.04
2022-11-26T11:35:27.003Z,72.61
2022-11-26T11:37:56.211Z,72.11
2022-11-26T11:40:27.905Z,72.42
2022-11-26T11:43:06.938Z,72.25
2022-11-26T11:45:53.096Z,73.13
2022-11-26T11:48:47.208Z,74.92
2022-11-26T11:51:35.326Z,75.21
2022-11-26T11:54:18.941Z,73.59
2022-11-26T11:57:18.105Z,72.00
2022-11-26T12:00:16.731Z,71.90
2022-11-26T12:03:30.253Z,71.00
2022-11-26T12:06:19.755Z,70.23
2022-11-26T12:09:07.246Z,70.27
2022-11-26T12:11:46.306Z,70.22
2022-11-26T12:14:38.523Z,70.29
2022-11-26T12:17:19.953Z,70.11
2022-11-26T12:19:58.729Z,70.08
2022-11-26T12:22:38.187Z,70.13
2022-11-26T12:25:20.779Z,70.28
2022-11-26T12:27:57.509Z,70.33
2022-11-26T12:30:31.587Z,70.25
2022-11-26T12:33:09.744Z,70.27
2022-11-26T12:35:45.230Z,70.17
2022-11-26T12:38:19.889Z,70.02
2022-11-26T12:40:58.396Z,70.11
2022-11-26T12:43:40.293Z,70.12
2022-11-26T12:46:20.031Z,70.44
2022-11-26T12:48:55.391Z,70.48
2022-11-26T12:51:47.093Z,70.18
2022-11-26T12:54:20.838Z,70.41
2022-11-26T12:56:58.380Z,70.27
2022-11-26T12:59:45.781Z,70.40
2022-11-26T13:02:31.031Z,70.18
2022-11-26T13:04:59.366Z,70.42
2022-11-26T13:07:58.524Z,70.50
2022-11-26T13:10:41.012Z,70.56
2022-11-26T13:13:28.264Z,70.35
2022-11-26T13:16:19.969Z,70.61
2022-11-26T13:18:53.248Z,70.67
2022-11-26T13:22:04.828Z,70.26
2022-11-26T13:24:51.228Z,70.37
2022-11-26T13:27:31.253Z,70.34
2022-11-26T13:30:22.234Z,70.04
2022-11-26T13:33:17.385Z,69.80
2022-11-26T13:36:05.708Z,70.00
2022-11-26T13:39:08.292Z,69.74
2022-11-26T13:41:47.911Z,69.56
2022-11-26T13:44:23.674Z,69.39
2022-11-26T13:47:06.095Z,69.41
2022-11-26T13:50:11.937Z,69.49
2022-11-26T13:52:50.093Z,69.78
2022-11-26T13:55:32.499Z,69.65
2022-11-26T13:58:05.556Z,69.64
2022-11-26T14:00:34.964Z,69.36
2022-11-26T14:03:03.728Z,69.08
2022-11-26T14:05:51.287Z,69.08
2022-11-26T14:08:47.102Z,69.20
2022-11-26T14:11:46.147Z,69.28
2022-11-26T14:14:30.859Z,69.03
2022-11-26T14:17:01.278Z,69.22
2022-11-26T14:19:40.931Z,69.07
2022-11-26T14:22:26.966Z,69.08
2022-11-26T14:24:57.588Z,69.00
2022-11-26T14:27:36.736Z,69.02
2022-11-26T14:30:07.674Z,69.15
2022-11-26T14:32:47.975Z,69.19
2022-11-26T14:35:39.597Z,69.23
2022-11-26T14:38:22.284Z,69.29
2022-11-26T14:41:02.373Z,69.33
2022-11-26T14:43:31.871Z,69.37
2022-11-26T14:46:17.856Z,69.30
2022-11-26T14:48:49.424Z,69.33
2022-11-26T14:51:24.994Z,69.27
2022-11-26T14:53:53.889Z,69.35
2022-11-26T14:56:24.500Z,69.34
2022-11-26T14:58:59.445Z,69.53
2022-11-26T15:01:32.526Z,69.62
2022-11-26T15:04:03.069Z,69.67
2022-11-26T15:06:43.245Z,69.64
2022-11-26T15:09:18.325Z,69.88
2022-11-26T15:11:55.311Z,69.81
2022-11-26T15:14:30.106Z,69.74
2022-11-26T15:17:02.760Z,69.84
2022-11-26T15:19:33.874Z,69.92
2022-11-26T15:22:06.446Z,70.02
2022-11-26T15:24:34.178Z,70.02
2022-11-26T15:27:01.257Z,70.13
2022-11-26T15:29:34.511Z,70.01
2022-11-26T15:32:01.665Z,69.93
2022-11-26T15:34:30.280Z,70.07
2022-11-26T15:36:58.753Z,70.22
2022-11-26T15:39:30.428Z,70.07
2022-11-26T15:42:06.318Z,70.26
2022-11-26T15:44:41.958Z,70.25
2022-11-26T15:47:20.434Z,70.28
2022-11-26T15:49:52.975Z,70.39
2022-11-26T15:52:27.013Z,70.56
2022-11-26T15:55:17.338Z,70.67
2022-11-26T15:57:50.763Z,70.53
2022-11-26T16:00:34.622Z,70.19
2022-11-26T16:03:02.351Z,70.48
2022-11-26T16:05:36.502Z,70.64
2022-11-26T16:08:27.443Z,70.62
2022-11-26T16:10:57.118Z,70.96
2022-11-26T16:13:32.414Z,71.02
2022-11-26T16:16:22.877Z,70.96
2022-11-26T16:19:04.800Z,70.93
2022-11-26T16:21:35.411Z,71.07
2022-11-26T16:24:07.580Z,71.24
2022-11-26T16:26:59.795Z,71.17
2022-11-26T16:29:28.728Z,71.10
2022-11-26T16:31:57.183Z,71.23
2022-11-26T16:34:29.184Z,71.43
2022-11-26T16:37:16.372Z,71.50
2022-11-26T16:39:43.340Z,71.46
2022-11-26T16:42:21.984Z,71.54
2022-11-26T16:44:51.704Z,71.38
2022-11-26T16:47:29.340Z,71.51
2022-11-26T16:49:57.713Z,71.46
2022-11-26T16:52:24.663Z,71.47
2022-11-26T16:54:52.600Z,71.66
2022-11-26T16:57:22.290Z,71.63
2022-11-26T16:59:52.870Z,71.75
2022-11-26T17:02:24.532Z,71.62
2022-11-26T17:04:52.305Z,71.81
2022-11-26T17:07:29.954Z,71.69
2022-11-26T17:09:57.955Z,71.63
2022-11-26T17:12:25.742Z,71.63
2022-11-26T17:17:40.512Z,71.61
2022-11-26T17:20:27.095Z,71.77
2022-11-26T17:22:54.409Z,71.72
2022-11-26T17:25:24.241Z,71.74
2022-11-26T17:27:51.830Z,71.81
2022-11-26T17:30:22.087Z,71.84
2022-11-26T17:32:52.174Z,71.77
2022-11-26T17:35:19.485Z,71.73
2022-11-26T17:37:46.610Z,71.75
2022-11-26T17:40:24.993Z,71.71
2022-11-26T17:42:52.263Z,71.51
2022-11-26T17:45:20.771Z,71.56
2022-11-26T17:47:48.723Z,71.53
2022-11-26T17:50:23.009Z,71.41
2022-11-26T17:52:54.719Z,71.55
2022-11-26T17:55:24.059Z,71.55
2022-11-26T17:57:53.527Z,71.27
2022-11-26T18:00:28.562Z,71.28
2022-11-26T18:02:57.744Z,71.44
2022-11-26T18:05:26.088Z,71.29
2022-11-26T18:07:56.575Z,71.40
2022-11-26T18:10:24.176Z,71.30
2022-11-26T18:12:54.614Z,71.33
2022-11-26T18:15:24.368Z,71.51
2022-11-26T18:17:54.271Z,71.26
2022-11-26T18:20:25.496Z,71.31
2022-11-26T18:22:57.889Z,71.50
2022-11-26T18:25:25.221Z,71.57
2022-11-26T18:27:52.833Z,71.49
2022-11-26T18:30:21.318Z,71.71
2022-11-26T18:32:48.361Z,71.68
2022-11-26T18:35:16.218Z,71.48
2022-11-26T18:37:43.604Z,71.48
2022-11-26T18:40:14.002Z,71.60
2022-11-26T18:42:41.189Z,71.52
2022-11-26T18:45:11.606Z,71.49
2022-11-26T18:47:38.565Z,71.43
2022-11-26T18:50:06.594Z,71.35
2022-11-26T18:52:33.747Z,71.47
2022-11-26T18:55:05.080Z,71.84
2022-11-26T18:57:32.469Z,71.96
2022-11-26T18:59:59.417Z,71.95
2022-11-26T19:02:26.496Z,71.73
2022-11-26T19:04:53.888Z,71.94
2022-11-26T19:07:21.509Z,72.01
2022-11-26T19:09:49.555Z,72.05
2022-11-26T19:12:17.673Z,72.29
2022-11-26T19:14:44.756Z,72.34
2022-11-26T19:17:12.508Z,72.33
2022-11-26T19:19:40.100Z,72.27
2022-11-26T19:22:07.085Z,72.07
2022-11-26T19:24:34.088Z,72.30
2022-11-26T19:27:01.285Z,72.21
2022-11-26T19:29:28.241Z,72.20
2022-11-26T19:31:55.218Z,72.25
2022-11-26T19:34:23.896Z,72.35
2022-11-26T19:36:53.431Z,72.35
2022-11-26T19:39:22.855Z,72.12
2022-11-26T19:41:49.728Z,72.06
2022-11-26T19:44:17.416Z,72.14
2022-11-26T19:46:47.876Z,71.85
2022-11-26T19:49:15.271Z,71.92
2022-11-26T19:51:43.073Z,71.90
2022-11-26T19:54:11.390Z,72.03
2022-11-26T19:56:38.532Z,71.86
2022-11-26T19:59:06.738Z,71.88
2022-11-26T20:01:36.410Z,71.94
2022-11-26T20:04:07.359Z,71.88
2022-11-26T20:06:36.732Z,72.04
2022-11-26T20:09:05.883Z,71.89
2022-11-26T20:11:33.390Z,72.07
2022-11-26T20:14:04.376Z,72.11
2022-11-26T20:16:32.759Z,72.11
2022-11-26T20:19:01.844Z,72.10
2022-11-26T20:21:34.127Z,72.14
2022-11-26T20:24:14.412Z,72.35
2022-11-26T20:26:43.827Z,72.43
2022-11-26T20:29:12.943Z,72.19
2022-11-26T20:31:45.984Z,72.17
2022-11-26T20:34:24.451Z,71.99
2022-11-26T20:36:51.880Z,71.84
2022-11-26T20:39:21.774Z,72.03
2022-11-26T20:41:51.922Z,71.71
2022-11-26T20:44:20.487Z,71.73
2022-11-26T20:46:47.725Z,71.83
2022-11-26T20:49:16.289Z,72.02
2022-11-26T20:51:43.897Z,72.02
2022-11-26T20:54:11.235Z,71.87
2022-11-26T20:56:42.326Z,71.94
2022-11-26T20:59:10.380Z,71.96
2022-11-26T21:01:37.519Z,72.26
2022-11-26T21:04:05.429Z,72.07
2022-11-26T21:06:35.755Z,72.20
2022-11-26T21:09:06.730Z,72.05
2022-11-26T21:11:34.494Z,71.88
2022-11-26T21:14:01.857Z,71.97
2022-11-26T21:16:29.292Z,72.25
2022-11-26T21:18:56.931Z,72.29
2022-11-26T21:21:26.649Z,72.11
2022-11-26T21:23:54.313Z,72.26
2022-11-26T21:26:24.037Z,72.22
2022-11-26T21:28:57.221Z,72.10
2022-11-26T21:31:25.208Z,72.09
2022-11-26T21:34:00.901Z,71.88
2022-11-26T21:36:31.489Z,71.85
2022-11-26T21:38:59.494Z,71.79
2022-11-26T21:41:27.932Z,71.89
2022-11-26T21:43:54.951Z,71.95
2022-11-26T21:46:27.715Z,72.02
2022-11-26T21:48:56.933Z,72.15
2022-11-26T21:51:27.508Z,72.07
2022-11-26T21:53:57.502Z,71.96
2022-11-26T21:56:28.859Z,72.02
2022-11-26T21:58:58.049Z,72.01
2022-11-26T22:01:31.528Z,72.10
2022-11-26T22:04:05.439Z,71.86
2022-11-26T22:06:34.705Z,71.84
2022-11-26T22:09:04.798Z,71.65
2022-11-26T22:11:38.275Z,71.92
2022-11-26T22:14:05.936Z,71.90
2022-11-26T22:16:33.564Z,71.75
2022-11-26T22:19:01.615Z,71.72
2022-11-26T22:21:32.231Z,71.66
2022-11-26T22:24:05.640Z,71.52
2022-11-26T22:26:33.588Z,71.40
2022-11-26T22:29:01.330Z,71.52
2022-11-26T22:31:33.927Z,71.65
2022-11-26T22:34:11.133Z,71.60
2022-11-26T22:36:40.420Z,71.89
2022-11-26T22:39:11.152Z,71.80
2022-11-26T22:41:39.847Z,71.85
2022-11-26T22:44:08.472Z,72.08
2022-11-26T22:46:38.292Z,72.34
2022-11-26T22:49:08.023Z,72.27
2022-11-26T22:51:40.224Z,72.14
2022-11-26T22:54:09.946Z,72.20
2022-11-26T22:56:41.503Z,72.26
2022-11-26T22:59:10.993Z,72.32
2022-11-26T23:01:39.325Z,72.25
2022-11-26T23:04:08.588Z,72.41
2022-11-26T23:06:37.152Z,72.61
2022-11-26T23:09:06.535Z,72.46
2022-11-26T23:11:39.127Z,72.46
2022-11-26T23:14:09.620Z,72.74
2022-11-26T23:16:40.087Z,72.73
2022-11-26T23:19:08.003Z,72.73
2022-11-26T23:21:40.445Z,72.71
2022-11-26T23:24:08.101Z,72.71
2022-11-26T23:26:39.137Z,72.57
2022-11-26T23:29:08.355Z,72.53
2022-11-26T23:31:39.559Z,72.57
2022-11-26T23:34:09.439Z,72.50
2022-11-26T23:36:37.248Z,72.61
2022-11-26T23:39:06.522Z,72.45
2022-11-26T23:41:33.646Z,72.29
2022-11-26T23:44:00.479Z,72.20
2022-11-26T23:46:31.176Z,71.91
2022-11-26T23:48:59.486Z,71.95
2022-11-26T23:51:29.261Z,71.89
2022-11-26T23:53:56.743Z,72.13
2022-11-26T23:56:29.223Z,71.88
2022-11-26T23:58:59.574Z,71.86
